Aviation Digital Data Service (ADDS)

Output produced by METARs form (1850 UTC 15 October 2018)
found at http://www.aviationweather.gov/metar/data/
 
KSAN 151741Z 1518/1624 02005KT P6SM SCT060 
     FM152000 33011KT P6SM SKC 
     FM160200 VRB03KT P6SM SKC 
     FM161900 32009KT P6SM SKC